createdAt,value
2019-05-21T00:01:26.686Z,34.10
2019-05-21T00:04:03.164Z,30.82
2019-05-21T00:06:39.687Z,35.13
2019-05-21T00:09:16.324Z,33.75
2019-05-21T00:11:52.958Z,31.37
2019-05-21T00:14:29.632Z,36.98
2019-05-21T00:17:06.089Z,33.08
2019-05-21T00:19:42.210Z,46.28
2019-05-21T00:22:19.017Z,54.73
2019-05-21T00:24:56.646Z,50.92
2019-05-21T00:27:33.628Z,51.45
2019-05-21T00:30:43.090Z,40.52
2019-05-21T00:33:52.827Z,40.60
2019-05-21T00:37:05.026Z,60.43
2019-05-21T00:40:14.963Z,51.33
2019-05-21T00:42:51.408Z,48.80
2019-05-21T00:45:28.065Z,40.78
2019-05-21T00:48:05.952Z,35.00
2019-05-21T00:50:42.363Z,35.90
2019-05-21T00:53:19.908Z,28.65
2019-05-21T00:55:56.871Z,31.37
2019-05-21T00:58:33.323Z,36.70
2019-05-21T01:01:10.280Z,34.65
2019-05-21T01:03:46.771Z,27.60
2019-05-21T01:06:23.555Z,27.42
2019-05-21T01:09:00.491Z,29.20
2019-05-21T01:11:37.822Z,25.10
2019-05-21T01:14:14.270Z,23.83
2019-05-21T01:16:52.345Z,24.35
2019-05-21T01:19:29.282Z,23.75
2019-05-21T01:22:05.895Z,24.82
2019-05-21T01:24:43.590Z,26.75
2019-05-21T01:27:20.402Z,22.15
2019-05-21T01:29:56.837Z,28.38
2019-05-21T01:32:33.379Z,28.40
2019-05-21T01:35:17.237Z,21.15
2019-05-21T01:37:48.523Z,26.45
2019-05-21T01:40:25.167Z,25.97
2019-05-21T01:43:03.322Z,27.65
2019-05-21T01:45:58.398Z,27.07
2019-05-21T01:48:34.920Z,26.27
2019-05-21T01:51:11.720Z,28.45
2019-05-21T01:53:48.093Z,22.40
2019-05-21T01:56:25.044Z,26.87
2019-05-21T01:59:01.891Z,25.02
2019-05-21T02:01:38.473Z,20.75
2019-05-21T02:04:15.035Z,25.08
2019-05-21T02:06:51.561Z,28.98
2019-05-21T02:09:28.207Z,25.62
2019-05-21T02:12:04.595Z,23.35
2019-05-21T02:14:40.878Z,23.00
2019-05-21T02:17:20.292Z,24.75
2019-05-21T02:19:56.893Z,29.55
2019-05-21T02:22:34.302Z,22.55
2019-05-21T02:25:11.464Z,21.70
2019-05-21T02:27:47.809Z,20.00
2019-05-21T02:30:25.006Z,22.45
2019-05-21T02:33:01.488Z,21.30
2019-05-21T02:35:53.024Z,18.87
2019-05-21T02:38:15.802Z,22.67
2019-05-21T02:40:53.662Z,26.75
2019-05-21T02:43:30.091Z,24.30
2019-05-21T02:46:07.162Z,27.82
2019-05-21T02:48:43.780Z,21.33
2019-05-21T02:51:20.494Z,24.27
2019-05-21T02:53:57.092Z,24.75
2019-05-21T02:56:34.067Z,25.20
2019-05-21T02:59:10.827Z,24.45
2019-05-21T03:02:08.361Z,28.87
2019-05-21T03:04:45.104Z,23.90
2019-05-21T03:07:24.954Z,22.70
2019-05-21T03:09:59.480Z,27.82
2019-05-21T03:12:36.490Z,27.35
2019-05-21T03:15:13.108Z,26.52
2019-05-21T03:17:49.694Z,22.90
2019-05-21T03:20:26.521Z,22.77
2019-05-21T03:23:02.934Z,26.25
2019-05-21T03:25:39.530Z,23.42
2019-05-21T03:28:16.068Z,21.02
2019-05-21T03:30:52.683Z,24.87
2019-05-21T03:33:29.480Z,21.07
2019-05-21T03:36:06.180Z,29.57
2019-05-21T03:38:42.999Z,24.27
2019-05-21T03:41:19.343Z,19.12
2019-05-21T03:43:55.505Z,22.17
2019-05-21T03:46:32.381Z,22.02
2019-05-21T03:49:09.028Z,25.82
2019-05-21T03:51:45.825Z,25.23
2019-05-21T03:54:22.573Z,24.02
2019-05-21T03:56:58.940Z,29.00
2019-05-21T03:59:37.218Z,26.77
2019-05-21T04:02:13.938Z,22.50
2019-05-21T04:04:50.745Z,27.70
2019-05-21T04:07:27.391Z,22.80
2019-05-21T04:10:04.431Z,21.93
2019-05-21T04:12:41.101Z,22.48
2019-05-21T04:15:20.576Z,25.50
2019-05-21T04:18:05.965Z,23.22
2019-05-21T04:20:42.549Z,27.05
2019-05-21T04:23:19.158Z,27.48
2019-05-21T04:25:55.980Z,22.00
2019-05-21T04:28:32.423Z,24.77
2019-05-21T04:31:08.917Z,32.45
2019-05-21T04:33:45.600Z,20.17
2019-05-21T04:36:22.216Z,26.25
2019-05-21T04:38:59.027Z,23.02
2019-05-21T04:41:35.567Z,20.20
2019-05-21T04:44:12.062Z,20.27
2019-05-21T04:46:48.763Z,20.77
2019-05-21T04:49:25.307Z,18.87
2019-05-21T04:52:01.996Z,26.97
2019-05-21T04:54:38.639Z,20.72
2019-05-21T04:57:15.300Z,24.72
2019-05-21T04:59:52.488Z,18.85
2019-05-21T05:02:29.009Z,20.95
2019-05-21T05:05:05.631Z,20.08
2019-05-21T05:07:42.277Z,19.70
2019-05-21T05:10:19.942Z,18.90
2019-05-21T05:12:56.627Z,24.60
2019-05-21T05:15:33.282Z,20.72
2019-05-21T05:18:09.377Z,21.30
2019-05-21T05:20:46.223Z,23.70
2019-05-21T05:23:22.987Z,29.18
2019-05-21T05:25:59.092Z,22.77
2019-05-21T05:28:35.989Z,23.90
2019-05-21T05:31:15.271Z,19.85
2019-05-21T05:33:50.451Z,18.45
2019-05-21T05:36:26.880Z,24.92
2019-05-21T05:39:02.968Z,23.80
2019-05-21T05:41:39.354Z,25.50
2019-05-21T05:44:15.721Z,24.45
2019-05-21T05:46:51.914Z,21.42
2019-05-21T05:49:33.624Z,22.55
2019-05-21T05:52:10.062Z,20.80
2019-05-21T05:54:46.341Z,23.30
2019-05-21T05:57:22.927Z,21.10
2019-05-21T05:59:59.521Z,26.68
2019-05-21T06:02:36.215Z,21.45
2019-05-21T06:05:12.973Z,16.05
2019-05-21T06:07:59.258Z,17.27
2019-05-21T06:10:28.214Z,18.95
2019-05-21T06:13:04.831Z,18.70
2019-05-21T06:15:41.730Z,21.68
2019-05-21T06:18:18.162Z,18.52
2019-05-21T06:20:54.660Z,18.42
2019-05-21T06:23:31.570Z,17.98
2019-05-21T06:26:08.337Z,23.15
2019-05-21T06:28:44.882Z,20.35
2019-05-21T06:31:21.311Z,22.07
2019-05-21T06:33:57.845Z,20.00
2019-05-21T06:36:34.126Z,24.20
2019-05-21T06:39:10.968Z,22.60
2019-05-21T06:41:47.778Z,17.87
2019-05-21T06:44:24.480Z,21.52
2019-05-21T06:47:01.019Z,18.05
2019-05-21T06:49:38.096Z,18.57
2019-05-21T06:52:14.596Z,14.80
2019-05-21T06:54:51.436Z,15.60
2019-05-21T06:57:28.097Z,16.45
2019-05-21T07:00:05.022Z,18.57
2019-05-21T07:02:42.013Z,15.53
2019-05-21T07:05:18.487Z,14.23
2019-05-21T07:07:55.072Z,15.20
2019-05-21T07:10:31.692Z,13.18
2019-05-21T07:13:08.205Z,16.35
2019-05-21T07:15:44.768Z,21.82
2019-05-21T07:18:21.406Z,12.68
2019-05-21T07:20:58.006Z,16.85
2019-05-21T07:23:34.645Z,13.32
2019-05-21T07:26:11.402Z,21.68
2019-05-21T07:28:48.054Z,17.92
2019-05-21T07:31:24.588Z,16.55
2019-05-21T07:34:01.495Z,25.90
2019-05-21T07:36:38.353Z,13.78
2019-05-21T07:39:15.100Z,19.20
2019-05-21T07:41:51.642Z,18.10
2019-05-21T07:44:28.028Z,14.98
2019-05-21T07:47:04.646Z,15.08
2019-05-21T07:49:41.392Z,17.00
2019-05-21T07:52:18.210Z,12.15
2019-05-21T07:54:54.891Z,18.27
2019-05-21T07:57:32.038Z,17.95
2019-05-21T08:00:10.091Z,20.85
2019-05-21T08:02:46.769Z,16.60
2019-05-21T08:05:23.804Z,15.32
2019-05-21T08:08:00.566Z,14.75
2019-05-21T08:10:37.025Z,15.72
2019-05-21T08:13:13.694Z,24.87
2019-05-21T08:15:50.171Z,14.80
2019-05-21T08:18:26.761Z,21.60
2019-05-21T08:21:03.389Z,15.68
2019-05-21T08:23:39.708Z,20.23
2019-05-21T08:26:16.428Z,14.35
2019-05-21T08:28:53.549Z,14.63
2019-05-21T08:31:30.105Z,14.85
2019-05-21T08:34:06.992Z,25.85
2019-05-21T08:36:43.465Z,18.87
2019-05-21T08:39:28.174Z,18.48
2019-05-21T08:41:58.671Z,14.47
2019-05-21T08:44:35.915Z,15.18
2019-05-21T08:47:12.649Z,16.52
2019-05-21T08:49:49.440Z,15.78
2019-05-21T08:52:25.864Z,19.75
2019-05-21T08:55:02.532Z,18.10
2019-05-21T08:57:39.216Z,20.57
2019-05-21T09:00:17.987Z,23.32
2019-05-21T09:02:54.923Z,23.80
2019-05-21T09:05:32.167Z,18.82
2019-05-21T09:08:08.909Z,21.57
2019-05-21T09:10:46.386Z,17.62
2019-05-21T09:13:23.284Z,22.35
2019-05-21T09:16:00.177Z,19.95
2019-05-21T09:18:36.455Z,21.68
2019-05-21T09:21:13.082Z,22.65
2019-05-21T09:23:49.497Z,21.33
2019-05-21T09:26:26.270Z,23.05
2019-05-21T09:29:03.215Z,21.75
2019-05-21T09:31:39.667Z,22.67
2019-05-21T09:34:16.252Z,21.05
2019-05-21T09:36:52.963Z,17.55
2019-05-21T09:39:29.912Z,18.62
2019-05-21T09:42:06.531Z,19.77
2019-05-21T09:44:43.092Z,56.95
2019-05-21T09:47:19.938Z,44.90
2019-05-21T09:49:56.770Z,34.27
2019-05-21T09:52:33.316Z,48.20
2019-05-21T09:55:10.442Z,29.12
2019-05-21T09:58:11.044Z,53.85
2019-05-21T10:01:18.011Z,88.00
2019-05-21T10:03:59.982Z,102.75
2019-05-21T10:06:36.833Z,52.45
2019-05-21T10:09:19.380Z,27.60
2019-05-21T10:11:55.866Z,24.65
2019-05-21T10:14:34.232Z,25.40
2019-05-21T10:17:10.223Z,22.52
2019-05-21T10:19:46.745Z,22.15
2019-05-21T10:22:23.545Z,20.43
2019-05-21T10:25:00.261Z,25.15
2019-05-21T10:27:36.945Z,16.90
2019-05-21T10:30:14.438Z,21.37
2019-05-21T10:32:51.055Z,22.55
2019-05-21T10:35:27.281Z,20.70
2019-05-21T10:38:03.725Z,21.10
2019-05-21T10:40:40.417Z,17.40
2019-05-21T10:43:16.839Z,22.15
2019-05-21T10:45:53.783Z,19.17
2019-05-21T10:48:47.956Z,25.12
2019-05-21T10:51:24.363Z,29.27
2019-05-21T10:54:00.935Z,22.27
2019-05-21T10:56:47.571Z,26.77
2019-05-21T10:59:15.235Z,21.95
2019-05-21T11:02:01.106Z,22.35
2019-05-21T11:04:43.214Z,25.75
2019-05-21T11:07:22.016Z,28.73
2019-05-21T11:09:58.605Z,25.23
2019-05-21T11:12:35.372Z,17.48
2019-05-21T11:15:12.658Z,22.80
2019-05-21T11:18:07.350Z,22.70
2019-05-21T11:20:26.813Z,26.70
2019-05-21T11:23:03.219Z,26.90
2019-05-21T11:25:39.632Z,23.40
2019-05-21T11:28:15.595Z,21.17
2019-05-21T11:30:52.189Z,20.62
2019-05-21T11:33:28.751Z,15.68
2019-05-21T11:36:04.609Z,20.72
2019-05-21T11:38:41.227Z,14.65
2019-05-21T11:41:17.673Z,14.43
2019-05-21T11:43:54.489Z,15.78
2019-05-21T11:46:31.026Z,9.50
2019-05-21T11:49:07.999Z,12.15
2019-05-21T11:51:44.697Z,7.92
2019-05-21T11:54:21.188Z,8.30
2019-05-21T11:56:57.381Z,10.20
2019-05-21T11:59:33.637Z,9.23
2019-05-21T12:02:10.937Z,7.45
2019-05-21T12:04:47.278Z,10.15
2019-05-21T12:07:24.285Z,10.30
2019-05-21T12:10:00.680Z,9.08
2019-05-21T12:12:37.589Z,8.18
2019-05-21T12:15:15.037Z,10.45
2019-05-21T12:17:51.927Z,10.38
2019-05-21T12:20:36.645Z,9.25
2019-05-21T12:23:06.268Z,9.00
2019-05-21T12:25:42.926Z,10.08
2019-05-21T12:28:19.508Z,13.20
2019-05-21T12:30:56.111Z,12.10
2019-05-21T12:33:35.208Z,10.23
2019-05-21T12:36:12.268Z,9.80
2019-05-21T12:38:48.691Z,12.07
2019-05-21T12:41:25.157Z,12.15
2019-05-21T12:44:01.775Z,11.57
2019-05-21T12:46:55.998Z,13.10
2019-05-21T12:49:32.723Z,12.70
2019-05-21T12:52:09.339Z,13.58
2019-05-21T12:54:46.465Z,12.60
2019-05-21T12:57:22.680Z,14.78
2019-05-21T12:59:58.728Z,12.13
2019-05-21T13:02:35.297Z,11.73
2019-05-21T13:05:11.892Z,18.35
2019-05-21T13:07:48.722Z,13.78
2019-05-21T13:10:27.058Z,11.18
2019-05-21T13:13:04.953Z,11.20
2019-05-21T13:15:41.875Z,12.70
2019-05-21T13:18:18.406Z,15.18
2019-05-21T13:20:54.675Z,13.75
2019-05-21T13:23:30.725Z,14.38
2019-05-21T13:26:08.715Z,11.68
2019-05-21T13:28:45.836Z,12.55
2019-05-21T13:31:22.758Z,14.30
2019-05-21T13:33:59.371Z,10.45
2019-05-21T13:36:35.926Z,12.35
2019-05-21T13:39:12.938Z,14.33
2019-05-21T13:41:49.548Z,13.38
2019-05-21T13:44:26.021Z,13.43
2019-05-21T13:47:03.191Z,13.75
2019-05-21T13:49:39.886Z,18.82
2019-05-21T13:52:16.349Z,10.30
2019-05-21T13:54:53.180Z,16.27
2019-05-21T13:57:29.985Z,14.93
2019-05-21T14:00:06.961Z,17.32
2019-05-21T14:02:44.148Z,16.73
2019-05-21T14:05:20.446Z,13.10
2019-05-21T14:07:58.089Z,16.77
2019-05-21T14:10:34.766Z,15.63
2019-05-21T14:13:11.073Z,11.18
2019-05-21T14:15:48.271Z,15.32
2019-05-21T14:18:24.862Z,13.88
2019-05-21T14:21:02.609Z,15.38
2019-05-21T14:23:40.156Z,15.70
2019-05-21T14:26:17.215Z,19.05
2019-05-21T14:28:53.659Z,14.13
2019-05-21T14:31:30.191Z,18.55
2019-05-21T14:34:06.696Z,15.78
2019-05-21T14:36:42.833Z,11.97
2019-05-21T14:39:20.310Z,14.50
2019-05-21T14:41:56.808Z,13.40
2019-05-21T14:44:33.787Z,14.38
2019-05-21T14:47:10.281Z,16.05
2019-05-21T14:49:47.889Z,19.82
2019-05-21T14:52:24.700Z,15.88
2019-05-21T14:55:00.837Z,15.35
2019-05-21T14:57:37.489Z,20.15
2019-05-21T15:00:38.854Z,14.55
2019-05-21T15:03:24.902Z,16.82
2019-05-21T15:05:53.023Z,15.90
2019-05-21T15:08:29.532Z,15.78
2019-05-21T15:11:06.457Z,17.15
2019-05-21T15:13:43.380Z,15.00
2019-05-21T15:16:19.883Z,19.40
2019-05-21T15:18:55.949Z,15.78
2019-05-21T15:21:37.261Z,19.42
2019-05-21T15:24:13.688Z,22.73
2019-05-21T15:26:50.751Z,22.35
2019-05-21T15:29:27.925Z,17.02
2019-05-21T15:32:04.452Z,17.98
2019-05-21T15:34:41.096Z,19.42
2019-05-21T15:37:17.384Z,18.27
2019-05-21T15:39:54.622Z,17.12
2019-05-21T15:42:31.674Z,18.62
2019-05-21T15:45:08.562Z,16.97
2019-05-21T15:47:45.299Z,18.07
2019-05-21T15:50:22.028Z,14.30
2019-05-21T15:52:58.887Z,15.78
2019-05-21T15:55:35.514Z,16.52
2019-05-21T15:58:12.249Z,14.50
2019-05-21T16:00:49.409Z,17.37
2019-05-21T16:03:26.047Z,13.83
2019-05-21T16:06:02.677Z,15.78
2019-05-21T16:08:39.188Z,14.05
2019-05-21T16:11:28.149Z,23.07
2019-05-21T16:13:54.262Z,14.15
2019-05-21T16:16:32.559Z,16.05
2019-05-21T16:19:09.946Z,17.20
2019-05-21T16:21:46.835Z,15.45
2019-05-21T16:24:23.555Z,18.02
2019-05-21T16:27:00.341Z,16.37
2019-05-21T16:29:36.924Z,18.12
2019-05-21T16:32:13.672Z,19.05
2019-05-21T16:34:50.277Z,14.55
2019-05-21T16:37:27.141Z,15.23
2019-05-21T16:40:03.844Z,18.87
2019-05-21T16:42:40.666Z,20.27
2019-05-21T16:45:19.161Z,17.73
2019-05-21T16:47:56.588Z,17.80
2019-05-21T16:50:33.140Z,20.90
2019-05-21T16:53:09.560Z,16.35
2019-05-21T16:55:46.016Z,17.70
2019-05-21T16:58:22.679Z,15.10
2019-05-21T17:00:59.300Z,14.47
2019-05-21T17:03:36.628Z,18.15
2019-05-21T17:06:12.927Z,14.83
2019-05-21T17:08:49.775Z,18.42
2019-05-21T17:11:26.400Z,17.87
2019-05-21T17:14:02.987Z,17.20
2019-05-21T17:16:39.821Z,18.12
2019-05-21T17:19:16.200Z,17.67
2019-05-21T17:21:52.500Z,19.02
2019-05-21T17:24:29.030Z,16.87
2019-05-21T17:27:05.669Z,18.45
2019-05-21T17:29:42.032Z,19.05
2019-05-21T17:32:18.758Z,20.52
2019-05-21T17:34:55.573Z,18.50
2019-05-21T17:37:33.268Z,18.92
2019-05-21T17:40:09.994Z,19.57
2019-05-21T17:42:46.762Z,18.30
2019-05-21T17:45:23.682Z,15.13
2019-05-21T17:48:00.448Z,17.75
2019-05-21T17:50:37.237Z,17.27
2019-05-21T17:53:14.001Z,17.05
2019-05-21T17:55:50.612Z,14.23
2019-05-21T17:58:27.271Z,17.07
2019-05-21T18:01:05.793Z,16.97
2019-05-21T18:03:42.658Z,13.48
2019-05-21T18:06:20.077Z,16.62
2019-05-21T18:08:57.051Z,14.30
2019-05-21T18:11:34.165Z,15.00
2019-05-21T18:14:11.146Z,16.95
2019-05-21T18:16:48.139Z,20.37
2019-05-21T18:19:24.624Z,18.02
2019-05-21T18:22:01.765Z,16.27
2019-05-21T18:24:38.741Z,22.10
2019-05-21T18:27:15.246Z,16.73
2019-05-21T18:29:52.240Z,22.85
2019-05-21T18:32:29.008Z,19.77
2019-05-21T18:35:06.982Z,16.20
2019-05-21T18:37:44.308Z,18.85
2019-05-21T18:40:22.145Z,23.52
2019-05-21T18:42:58.557Z,15.70
2019-05-21T18:45:35.450Z,16.75
2019-05-21T18:48:11.876Z,17.00
2019-05-21T18:50:48.071Z,17.32
2019-05-21T18:53:24.946Z,16.05
2019-05-21T18:56:01.687Z,17.27
2019-05-21T18:58:38.490Z,17.57
2019-05-21T19:01:15.269Z,21.27
2019-05-21T19:03:51.956Z,20.75
2019-05-21T19:06:29.412Z,15.95
2019-05-21T19:09:06.269Z,18.48
2019-05-21T19:11:42.967Z,14.38
2019-05-21T19:14:19.775Z,17.92
2019-05-21T19:16:55.991Z,15.30
2019-05-21T19:19:32.550Z,17.37
2019-05-21T19:22:09.301Z,14.85
2019-05-21T19:24:46.002Z,16.80
2019-05-21T19:27:22.475Z,16.23
2019-05-21T19:29:59.063Z,15.78
2019-05-21T19:32:35.876Z,13.00
2019-05-21T19:35:12.842Z,18.02
2019-05-21T19:37:49.643Z,17.32
2019-05-21T19:40:26.657Z,21.33
2019-05-21T19:43:03.061Z,18.50
2019-05-21T19:45:39.176Z,20.85
2019-05-21T19:48:16.121Z,23.18
2019-05-21T19:50:52.813Z,18.90
2019-05-21T19:53:29.499Z,20.32
2019-05-21T19:56:06.451Z,17.02
2019-05-21T19:58:43.111Z,19.60
2019-05-21T20:01:19.769Z,18.07
2019-05-21T20:03:56.957Z,20.55
2019-05-21T20:06:35.425Z,20.75
2019-05-21T20:09:16.932Z,18.12
2019-05-21T20:11:53.672Z,27.70
2019-05-21T20:14:30.971Z,26.60
2019-05-21T20:17:08.696Z,22.10
2019-05-21T20:19:48.105Z,27.75
2019-05-21T20:22:27.040Z,22.15
2019-05-21T20:25:06.127Z,26.30
2019-05-21T20:27:45.546Z,22.35
2019-05-21T20:30:24.489Z,21.97
2019-05-21T20:33:02.949Z,19.85
2019-05-21T20:35:41.932Z,16.95
2019-05-21T20:38:21.192Z,19.32
2019-05-21T20:40:59.847Z,25.27
2019-05-21T20:43:38.762Z,22.73
2019-05-21T20:46:17.949Z,29.87
2019-05-21T20:48:56.760Z,28.55
2019-05-21T20:51:35.211Z,31.65
2019-05-21T20:54:16.268Z,29.57
2019-05-21T20:56:55.145Z,40.45
2019-05-21T20:59:34.208Z,32.75
2019-05-21T21:02:13.132Z,33.25
2019-05-21T21:04:51.955Z,28.60
2019-05-21T21:07:30.854Z,24.87
2019-05-21T21:10:10.514Z,28.62
2019-05-21T21:12:50.735Z,21.93
2019-05-21T21:15:30.478Z,19.52
2019-05-21T21:18:09.311Z,23.38
2019-05-21T21:20:47.789Z,22.82
2019-05-21T21:23:27.936Z,27.07
2019-05-21T21:26:07.495Z,21.25
2019-05-21T21:28:46.056Z,22.13
2019-05-21T21:31:24.726Z,21.60
2019-05-21T21:34:03.133Z,22.40
2019-05-21T21:36:41.519Z,15.50
2019-05-21T21:39:22.254Z,20.92
2019-05-21T21:42:00.919Z,18.77
2019-05-21T21:44:40.540Z,9.20
2019-05-21T21:47:19.631Z,12.98
2019-05-21T21:49:58.452Z,9.90
2019-05-21T21:52:37.408Z,8.10
2019-05-21T21:55:16.274Z,11.05
2019-05-21T21:57:54.831Z,11.50
2019-05-21T22:01:23.106Z,15.13
2019-05-21T22:04:04.544Z,9.48
2019-05-21T22:06:46.166Z,10.48
2019-05-21T22:09:33.384Z,9.95
2019-05-21T22:12:14.846Z,8.53
2019-05-21T22:14:55.715Z,11.97
2019-05-21T22:17:34.574Z,8.38
2019-05-21T22:20:15.313Z,11.60
2019-05-21T22:22:53.748Z,8.08
2019-05-21T22:25:32.044Z,9.08
2019-05-21T22:28:10.324Z,9.50
2019-05-21T22:30:49.886Z,9.63
2019-05-21T22:33:28.258Z,11.12
2019-05-21T22:36:07.443Z,13.03
2019-05-21T22:38:45.948Z,8.68
2019-05-21T22:41:22.937Z,8.78
2019-05-21T22:43:59.624Z,10.30
2019-05-21T22:46:35.999Z,11.75
2019-05-21T22:49:13.269Z,13.88
2019-05-21T22:51:49.727Z,15.80
2019-05-21T22:54:27.743Z,11.22
2019-05-21T22:57:06.172Z,8.95
2019-05-21T22:59:44.591Z,6.83
2019-05-21T23:02:27.531Z,7.60
2019-05-21T23:05:06.646Z,7.67
2019-05-21T23:07:46.164Z,8.25
2019-05-21T23:10:25.236Z,9.15
2019-05-21T23:13:03.893Z,7.65
2019-05-21T23:15:43.406Z,10.53
2019-05-21T23:18:23.286Z,13.22
2019-05-21T23:21:03.513Z,10.82
2019-05-21T23:23:43.421Z,13.22
2019-05-21T23:26:22.292Z,11.63
2019-05-21T23:28:59.597Z,13.32
2019-05-21T23:31:36.854Z,10.30
2019-05-21T23:34:14.629Z,8.38
2019-05-21T23:36:52.866Z,13.60
2019-05-21T23:39:34.259Z,10.68
2019-05-21T23:42:12.767Z,8.58
2019-05-21T23:44:51.257Z,6.90
2019-05-21T23:47:30.210Z,12.58
2019-05-21T23:50:09.245Z,10.50
2019-05-21T23:52:48.192Z,11.57
2019-05-21T23:55:26.363Z,12.60
2019-05-21T23:58:05.505Z,7.42
